sensor_id;sensor_type;location;lat;lon;timestamp;P1;durP1;ratioP1;P2;durP2;ratioP2
36475;SDS011;56615;42.682;23.364;2022-11-15T00:01:48;153.38;;;87.72;;
36475;SDS011;56615;42.682;23.364;2022-11-15T00:04:14;151.13;;;87.90;;
36475;SDS011;56615;42.682;23.364;2022-11-15T00:06:39;135.85;;;81.95;;
36475;SDS011;56615;42.682;23.364;2022-11-15T00:09:05;136.32;;;81.28;;
36475;SDS011;56615;42.682;23.364;2022-11-15T00:11:30;134.50;;;78.20;;
36475;SDS011;56615;42.682;23.364;2022-11-15T00:13:57;127.75;;;76.18;;
36475;SDS011;56615;42.682;23.364;2022-11-15T00:16:23;123.40;;;72.47;;
36475;SDS011;56615;42.682;23.364;2022-11-15T00:18:48;126.72;;;75.15;;
36475;SDS011;56615;42.682;23.364;2022-11-15T00:21:14;118.47;;;73.32;;
36475;SDS011;56615;42.682;23.364;2022-11-15T00:23:42;118.95;;;73.78;;
36475;SDS011;56615;42.682;23.364;2022-11-15T00:26:10;114.68;;;68.78;;
36475;SDS011;56615;42.682;23.364;2022-11-15T00:28:37;115.55;;;66.38;;
36475;SDS011;56615;42.682;23.364;2022-11-15T00:31:03;107.22;;;64.32;;
36475;SDS011;56615;42.682;23.364;2022-11-15T00:33:30;107.47;;;63.78;;
36475;SDS011;56615;42.682;23.364;2022-11-15T00:35:59;107.55;;;62.63;;
36475;SDS011;56615;42.682;23.364;2022-11-15T00:38:30;105.85;;;63.58;;
36475;SDS011;56615;42.682;23.364;2022-11-15T00:40:59;104.53;;;62.05;;
36475;SDS011;56615;42.682;23.364;2022-11-15T00:43:24;107.30;;;62.00;;
36475;SDS011;56615;42.682;23.364;2022-11-15T00:45:50;102.45;;;61.42;;
36475;SDS011;56615;42.682;23.364;2022-11-15T00:48:15;108.20;;;60.58;;
36475;SDS011;56615;42.682;23.364;2022-11-15T00:50:40;100.65;;;61.00;;
36475;SDS011;56615;42.682;23.364;2022-11-15T00:53:07;108.63;;;61.85;;
36475;SDS011;56615;42.682;23.364;2022-11-15T00:55:34;104.75;;;62.22;;
36475;SDS011;56615;42.682;23.364;2022-11-15T00:58:00;105.15;;;62.00;;
36475;SDS011;56615;42.682;23.364;2022-11-15T01:00:25;108.10;;;63.08;;
36475;SDS011;56615;42.682;23.364;2022-11-15T01:02:50;108.68;;;61.47;;
36475;SDS011;56615;42.682;23.364;2022-11-15T01:05:17;109.45;;;64.40;;
36475;SDS011;56615;42.682;23.364;2022-11-15T01:07:43;107.50;;;63.83;;
36475;SDS011;56615;42.682;23.364;2022-11-15T01:10:08;104.10;;;64.30;;
36475;SDS011;56615;42.682;23.364;2022-11-15T01:12:34;108.40;;;65.15;;
36475;SDS011;56615;42.682;23.364;2022-11-15T01:14:59;108.00;;;64.80;;
36475;SDS011;56615;42.682;23.364;2022-11-15T01:17:25;118.18;;;65.90;;
36475;SDS011;56615;42.682;23.364;2022-11-15T01:19:50;109.20;;;67.32;;
36475;SDS011;56615;42.682;23.364;2022-11-15T01:22:16;112.60;;;68.60;;
36475;SDS011;56615;42.682;23.364;2022-11-15T01:24:41;110.05;;;67.32;;
36475;SDS011;56615;42.682;23.364;2022-11-15T01:27:07;110.28;;;66.13;;
36475;SDS011;56615;42.682;23.364;2022-11-15T01:29:32;112.68;;;66.60;;
36475;SDS011;56615;42.682;23.364;2022-11-15T01:31:58;107.20;;;66.85;;
36475;SDS011;56615;42.682;23.364;2022-11-15T01:34:23;109.13;;;67.07;;
36475;SDS011;56615;42.682;23.364;2022-11-15T01:36:50;108.60;;;64.00;;
36475;SDS011;56615;42.682;23.364;2022-11-15T01:39:15;107.22;;;64.40;;
36475;SDS011;56615;42.682;23.364;2022-11-15T01:41:41;110.63;;;63.67;;
36475;SDS011;56615;42.682;23.364;2022-11-15T01:44:31;108.85;;;63.22;;
36475;SDS011;56615;42.682;23.364;2022-11-15T01:47:12;104.90;;;61.28;;
36475;SDS011;56615;42.682;23.364;2022-11-15T01:49:38;103.32;;;60.38;;
36475;SDS011;56615;42.682;23.364;2022-11-15T01:52:17;96.30;;;59.15;;
36475;SDS011;56615;42.682;23.364;2022-11-15T01:54:44;90.97;;;54.08;;
36475;SDS011;56615;42.682;23.364;2022-11-15T01:57:10;88.82;;;50.42;;
36475;SDS011;56615;42.682;23.364;2022-11-15T01:59:37;87.13;;;50.88;;
36475;SDS011;56615;42.682;23.364;2022-11-15T02:02:03;89.90;;;50.95;;
36475;SDS011;56615;42.682;23.364;2022-11-15T02:04:29;90.90;;;52.38;;
36475;SDS011;56615;42.682;23.364;2022-11-15T02:06:56;94.90;;;55.13;;
36475;SDS011;56615;42.682;23.364;2022-11-15T02:09:22;102.45;;;59.70;;
36475;SDS011;56615;42.682;23.364;2022-11-15T02:11:48;107.75;;;60.90;;
36475;SDS011;56615;42.682;23.364;2022-11-15T02:14:14;102.03;;;60.65;;
36475;SDS011;56615;42.682;23.364;2022-11-15T02:22:00;125.10;;;74.28;;
36475;SDS011;56615;42.682;23.364;2022-11-15T02:32:57;143.73;;;86.97;;
36475;SDS011;56615;42.682;23.364;2022-11-15T02:38:36;151.45;;;88.50;;
36475;SDS011;56615;42.682;23.364;2022-11-15T02:41:11;149.63;;;87.82;;
36475;SDS011;56615;42.682;23.364;2022-11-15T02:46:35;152.85;;;87.82;;
36475;SDS011;56615;42.682;23.364;2022-11-15T02:49:23;163.18;;;92.30;;
36475;SDS011;56615;42.682;23.364;2022-11-15T02:51:52;160.05;;;91.68;;
36475;SDS011;56615;42.682;23.364;2022-11-15T02:54:24;166.30;;;95.30;;
36475;SDS011;56615;42.682;23.364;2022-11-15T02:56:52;170.23;;;97.03;;
36475;SDS011;56615;42.682;23.364;2022-11-15T03:05:08;148.98;;;76.85;;
36475;SDS011;56615;42.682;23.364;2022-11-15T03:07:36;148.35;;;71.60;;
36475;SDS011;56615;42.682;23.364;2022-11-15T03:10:26;141.07;;;71.88;;
36475;SDS011;56615;42.682;23.364;2022-11-15T03:15:37;132.35;;;68.53;;
36475;SDS011;56615;42.682;23.364;2022-11-15T03:18:15;136.43;;;69.53;;
36475;SDS011;56615;42.682;23.364;2022-11-15T03:20:55;132.70;;;68.75;;
36475;SDS011;56615;42.682;23.364;2022-11-15T03:23:21;130.90;;;67.18;;
36475;SDS011;56615;42.682;23.364;2022-11-15T03:28:19;121.78;;;60.53;;
36475;SDS011;56615;42.682;23.364;2022-11-15T03:30:50;124.30;;;65.43;;
36475;SDS011;56615;42.682;23.364;2022-11-15T03:33:16;120.97;;;65.25;;
36475;SDS011;56615;42.682;23.364;2022-11-15T03:35:43;126.15;;;66.70;;
36475;SDS011;56615;42.682;23.364;2022-11-15T03:40:45;124.72;;;63.40;;
36475;SDS011;56615;42.682;23.364;2022-11-15T03:45:47;123.60;;;63.17;;
36475;SDS011;56615;42.682;23.364;2022-11-15T03:48:18;116.40;;;59.72;;
36475;SDS011;56615;42.682;23.364;2022-11-15T03:50:46;114.63;;;59.45;;
36475;SDS011;56615;42.682;23.364;2022-11-15T03:53:12;119.50;;;58.65;;
36475;SDS011;56615;42.682;23.364;2022-11-15T03:55:38;110.63;;;56.55;;
36475;SDS011;56615;42.682;23.364;2022-11-15T03:58:03;108.75;;;55.55;;
36475;SDS011;56615;42.682;23.364;2022-11-15T04:00:29;101.60;;;54.42;;
36475;SDS011;56615;42.682;23.364;2022-11-15T04:02:54;104.38;;;55.55;;
36475;SDS011;56615;42.682;23.364;2022-11-15T04:05:20;102.75;;;55.97;;
36475;SDS011;56615;42.682;23.364;2022-11-15T04:07:45;98.35;;;54.08;;
36475;SDS011;56615;42.682;23.364;2022-11-15T04:10:11;98.00;;;54.03;;
36475;SDS011;56615;42.682;23.364;2022-11-15T04:12:38;99.45;;;53.85;;
36475;SDS011;56615;42.682;23.364;2022-11-15T04:15:08;95.80;;;51.83;;
36475;SDS011;56615;42.682;23.364;2022-11-15T04:17:42;98.75;;;51.80;;
36475;SDS011;56615;42.682;23.364;2022-11-15T04:20:19;86.18;;;49.60;;
36475;SDS011;56615;42.682;23.364;2022-11-15T04:23:05;80.07;;;46.60;;
36475;SDS011;56615;42.682;23.364;2022-11-15T04:25:54;84.30;;;47.40;;
36475;SDS011;56615;42.682;23.364;2022-11-15T04:28:21;78.65;;;45.83;;
36475;SDS011;56615;42.682;23.364;2022-11-15T04:30:47;74.57;;;45.47;;
36475;SDS011;56615;42.682;23.364;2022-11-15T04:33:12;75.40;;;44.92;;
36475;SDS011;56615;42.682;23.364;2022-11-15T04:35:38;72.35;;;43.85;;
36475;SDS011;56615;42.682;23.364;2022-11-15T04:38:04;68.72;;;42.50;;
36475;SDS011;56615;42.682;23.364;2022-11-15T04:40:31;68.97;;;43.35;;
36475;SDS011;56615;42.682;23.364;2022-11-15T04:42:57;76.55;;;44.00;;
36475;SDS011;56615;42.682;23.364;2022-11-15T04:45:22;77.10;;;45.38;;
36475;SDS011;56615;42.682;23.364;2022-11-15T04:47:48;73.85;;;42.58;;
36475;SDS011;56615;42.682;23.364;2022-11-15T04:50:13;71.25;;;43.47;;
36475;SDS011;56615;42.682;23.364;2022-11-15T04:52:43;68.30;;;40.72;;
36475;SDS011;56615;42.682;23.364;2022-11-15T04:55:17;66.13;;;39.28;;
36475;SDS011;56615;42.682;23.364;2022-11-15T04:57:43;68.35;;;40.65;;
36475;SDS011;56615;42.682;23.364;2022-11-15T05:00:10;72.90;;;39.75;;
36475;SDS011;56615;42.682;23.364;2022-11-15T05:02:38;67.20;;;38.80;;
36475;SDS011;56615;42.682;23.364;2022-11-15T05:05:22;66.65;;;38.45;;
36475;SDS011;56615;42.682;23.364;2022-11-15T05:07:48;71.10;;;38.10;;
36475;SDS011;56615;42.682;23.364;2022-11-15T05:10:14;73.55;;;39.40;;
36475;SDS011;56615;42.682;23.364;2022-11-15T05:12:39;73.07;;;39.03;;
36475;SDS011;56615;42.682;23.364;2022-11-15T05:15:05;69.00;;;36.20;;
36475;SDS011;56615;42.682;23.364;2022-11-15T05:17:31;74.40;;;37.92;;
36475;SDS011;56615;42.682;23.364;2022-11-15T05:19:56;69.53;;;34.53;;
36475;SDS011;56615;42.682;23.364;2022-11-15T05:22:22;70.43;;;33.70;;
36475;SDS011;56615;42.682;23.364;2022-11-15T05:24:47;69.82;;;33.58;;
36475;SDS011;56615;42.682;23.364;2022-11-15T05:27:12;61.97;;;28.05;;
36475;SDS011;56615;42.682;23.364;2022-11-15T05:29:38;59.20;;;27.95;;
36475;SDS011;56615;42.682;23.364;2022-11-15T05:32:04;52.97;;;26.63;;
36475;SDS011;56615;42.682;23.364;2022-11-15T05:34:30;61.75;;;27.70;;
36475;SDS011;56615;42.682;23.364;2022-11-15T05:36:56;72.40;;;26.67;;
36475;SDS011;56615;42.682;23.364;2022-11-15T05:39:23;58.65;;;26.17;;
36475;SDS011;56615;42.682;23.364;2022-11-15T05:41:49;59.00;;;26.80;;
36475;SDS011;56615;42.682;23.364;2022-11-15T05:44:18;63.45;;;26.52;;
36475;SDS011;56615;42.682;23.364;2022-11-15T05:46:45;55.53;;;24.90;;
36475;SDS011;56615;42.682;23.364;2022-11-15T05:49:11;51.17;;;23.23;;
36475;SDS011;56615;42.682;23.364;2022-11-15T05:51:39;55.30;;;25.75;;
36475;SDS011;56615;42.682;23.364;2022-11-15T05:54:06;49.15;;;24.20;;
36475;SDS011;56615;42.682;23.364;2022-11-15T05:56:31;55.70;;;25.77;;
36475;SDS011;56615;42.682;23.364;2022-11-15T05:58:57;59.72;;;26.73;;
36475;SDS011;56615;42.682;23.364;2022-11-15T06:01:23;67.30;;;27.30;;
36475;SDS011;56615;42.682;23.364;2022-11-15T06:03:50;56.10;;;25.88;;
36475;SDS011;56615;42.682;23.364;2022-11-15T06:06:15;63.47;;;31.80;;
36475;SDS011;56615;42.682;23.364;2022-11-15T06:08:40;78.13;;;29.23;;
36475;SDS011;56615;42.682;23.364;2022-11-15T06:11:06;72.72;;;31.23;;
36475;SDS011;56615;42.682;23.364;2022-11-15T06:13:33;68.78;;;30.67;;
36475;SDS011;56615;42.682;23.364;2022-11-15T06:15:59;69.82;;;31.13;;
36475;SDS011;56615;42.682;23.364;2022-11-15T06:18:24;66.35;;;27.85;;
36475;SDS011;56615;42.682;23.364;2022-11-15T06:20:50;63.00;;;30.17;;
36475;SDS011;56615;42.682;23.364;2022-11-15T06:23:16;60.00;;;27.98;;
36475;SDS011;56615;42.682;23.364;2022-11-15T06:25:43;63.88;;;30.00;;
36475;SDS011;56615;42.682;23.364;2022-11-15T06:28:09;60.80;;;28.63;;
36475;SDS011;56615;42.682;23.364;2022-11-15T06:30:34;59.60;;;27.38;;
36475;SDS011;56615;42.682;23.364;2022-11-15T06:33:03;60.30;;;26.98;;
36475;SDS011;56615;42.682;23.364;2022-11-15T06:35:30;56.25;;;28.35;;
36475;SDS011;56615;42.682;23.364;2022-11-15T06:38:01;53.83;;;25.70;;
36475;SDS011;56615;42.682;23.364;2022-11-15T06:40:32;50.50;;;26.45;;
36475;SDS011;56615;42.682;23.364;2022-11-15T06:42:59;51.70;;;26.90;;
36475;SDS011;56615;42.682;23.364;2022-11-15T06:45:24;52.63;;;26.10;;
36475;SDS011;56615;42.682;23.364;2022-11-15T06:47:50;51.90;;;25.73;;
36475;SDS011;56615;42.682;23.364;2022-11-15T06:50:15;55.63;;;28.48;;
36475;SDS011;56615;42.682;23.364;2022-11-15T06:52:41;55.15;;;26.92;;
36475;SDS011;56615;42.682;23.364;2022-11-15T06:55:06;59.28;;;27.67;;
36475;SDS011;56615;42.682;23.364;2022-11-15T06:57:33;50.92;;;23.75;;
36475;SDS011;56615;42.682;23.364;2022-11-15T06:59:58;42.15;;;23.15;;
36475;SDS011;56615;42.682;23.364;2022-11-15T07:02:23;58.45;;;26.83;;
36475;SDS011;56615;42.682;23.364;2022-11-15T07:04:49;52.35;;;25.38;;
36475;SDS011;56615;42.682;23.364;2022-11-15T07:07:14;56.72;;;28.20;;
36475;SDS011;56615;42.682;23.364;2022-11-15T07:09:40;57.50;;;29.40;;
36475;SDS011;56615;42.682;23.364;2022-11-15T07:12:05;59.90;;;27.17;;
36475;SDS011;56615;42.682;23.364;2022-11-15T07:14:31;57.00;;;26.92;;
36475;SDS011;56615;42.682;23.364;2022-11-15T07:16:56;43.72;;;23.90;;
36475;SDS011;56615;42.682;23.364;2022-11-15T07:19:21;51.20;;;24.77;;
36475;SDS011;56615;42.682;23.364;2022-11-15T07:21:47;55.42;;;25.60;;
36475;SDS011;56615;42.682;23.364;2022-11-15T07:24:12;52.05;;;25.92;;
36475;SDS011;56615;42.682;23.364;2022-11-15T07:26:37;50.88;;;26.55;;
36475;SDS011;56615;42.682;23.364;2022-11-15T07:29:03;54.17;;;27.15;;
36475;SDS011;56615;42.682;23.364;2022-11-15T07:31:28;59.65;;;28.58;;
36475;SDS011;56615;42.682;23.364;2022-11-15T07:33:53;57.95;;;29.20;;
36475;SDS011;56615;42.682;23.364;2022-11-15T07:36:19;56.53;;;28.33;;
36475;SDS011;56615;42.682;23.364;2022-11-15T07:38:44;61.83;;;32.88;;
36475;SDS011;56615;42.682;23.364;2022-11-15T07:41:10;66.18;;;31.95;;
36475;SDS011;56615;42.682;23.364;2022-11-15T07:43:35;68.43;;;32.65;;
36475;SDS011;56615;42.682;23.364;2022-11-15T07:46:07;68.68;;;32.92;;
36475;SDS011;56615;42.682;23.364;2022-11-15T07:48:36;62.90;;;31.60;;
36475;SDS011;56615;42.682;23.364;2022-11-15T07:51:04;67.63;;;33.30;;
36475;SDS011;56615;42.682;23.364;2022-11-15T07:53:33;69.88;;;35.17;;
36475;SDS011;56615;42.682;23.364;2022-11-15T07:55:58;71.97;;;35.63;;
36475;SDS011;56615;42.682;23.364;2022-11-15T07:58:24;66.15;;;33.80;;
36475;SDS011;56615;42.682;23.364;2022-11-15T08:00:49;67.70;;;34.58;;
36475;SDS011;56615;42.682;23.364;2022-11-15T08:03:15;67.07;;;33.53;;
36475;SDS011;56615;42.682;23.364;2022-11-15T08:05:41;65.97;;;33.67;;
36475;SDS011;56615;42.682;23.364;2022-11-15T08:08:09;71.15;;;35.38;;
36475;SDS011;56615;42.682;23.364;2022-11-15T08:10:35;73.18;;;35.83;;
36475;SDS011;56615;42.682;23.364;2022-11-15T08:13:05;74.00;;;36.25;;
36475;SDS011;56615;42.682;23.364;2022-11-15T08:15:34;66.85;;;35.30;;
36475;SDS011;56615;42.682;23.364;2022-11-15T08:18:01;70.80;;;36.05;;
36475;SDS011;56615;42.682;23.364;2022-11-15T08:20:28;70.22;;;36.63;;
36475;SDS011;56615;42.682;23.364;2022-11-15T08:22:55;75.15;;;37.28;;
36475;SDS011;56615;42.682;23.364;2022-11-15T08:25:25;74.35;;;38.33;;
36475;SDS011;56615;42.682;23.364;2022-11-15T08:30:39;74.45;;;38.90;;
36475;SDS011;56615;42.682;23.364;2022-11-15T08:33:09;69.75;;;38.30;;
36475;SDS011;56615;42.682;23.364;2022-11-15T08:35:35;74.88;;;39.95;;
36475;SDS011;56615;42.682;23.364;2022-11-15T08:38:00;75.03;;;39.13;;
36475;SDS011;56615;42.682;23.364;2022-11-15T08:40:26;80.30;;;40.78;;
36475;SDS011;56615;42.682;23.364;2022-11-15T08:42:52;78.05;;;40.35;;
36475;SDS011;56615;42.682;23.364;2022-11-15T08:45:17;80.25;;;40.85;;
36475;SDS011;56615;42.682;23.364;2022-11-15T08:47:42;76.18;;;39.50;;
36475;SDS011;56615;42.682;23.364;2022-11-15T08:50:08;75.53;;;39.05;;
36475;SDS011;56615;42.682;23.364;2022-11-15T08:52:34;77.97;;;41.85;;
36475;SDS011;56615;42.682;23.364;2022-11-15T08:54:59;82.13;;;41.65;;
36475;SDS011;56615;42.682;23.364;2022-11-15T08:57:24;80.70;;;42.15;;
36475;SDS011;56615;42.682;23.364;2022-11-15T08:59:50;83.45;;;43.53;;
36475;SDS011;56615;42.682;23.364;2022-11-15T09:02:15;85.18;;;44.33;;
36475;SDS011;56615;42.682;23.364;2022-11-15T09:04:41;85.15;;;44.50;;
36475;SDS011;56615;42.682;23.364;2022-11-15T09:07:08;91.07;;;47.83;;
36475;SDS011;56615;42.682;23.364;2022-11-15T09:09:36;94.35;;;48.65;;
36475;SDS011;56615;42.682;23.364;2022-11-15T09:12:02;98.65;;;50.03;;
36475;SDS011;56615;42.682;23.364;2022-11-15T09:14:28;107.18;;;51.67;;
36475;SDS011;56615;42.682;23.364;2022-11-15T09:16:54;101.13;;;52.90;;
36475;SDS011;56615;42.682;23.364;2022-11-15T09:19:19;105.72;;;52.78;;
36475;SDS011;56615;42.682;23.364;2022-11-15T09:21:44;108.10;;;54.17;;
36475;SDS011;56615;42.682;23.364;2022-11-15T09:24:10;105.00;;;54.13;;
36475;SDS011;56615;42.682;23.364;2022-11-15T09:26:35;107.85;;;55.25;;
36475;SDS011;56615;42.682;23.364;2022-11-15T09:29:01;101.95;;;54.22;;
36475;SDS011;56615;42.682;23.364;2022-11-15T09:31:26;103.25;;;52.05;;
36475;SDS011;56615;42.682;23.364;2022-11-15T09:33:52;108.35;;;55.60;;
36475;SDS011;56615;42.682;23.364;2022-11-15T09:36:18;116.60;;;56.17;;
36475;SDS011;56615;42.682;23.364;2022-11-15T09:38:43;118.70;;;59.63;;
36475;SDS011;56615;42.682;23.364;2022-11-15T09:41:34;117.05;;;60.67;;
36475;SDS011;56615;42.682;23.364;2022-11-15T09:50:11;114.05;;;57.55;;
36475;SDS011;56615;42.682;23.364;2022-11-15T09:52:39;108.88;;;58.85;;
36475;SDS011;56615;42.682;23.364;2022-11-15T09:55:11;107.53;;;56.78;;
36475;SDS011;56615;42.682;23.364;2022-11-15T09:57:54;101.25;;;53.47;;
36475;SDS011;56615;42.682;23.364;2022-11-15T10:00:28;105.43;;;55.60;;
36475;SDS011;56615;42.682;23.364;2022-11-15T10:03:07;104.70;;;55.00;;
36475;SDS011;56615;42.682;23.364;2022-11-15T10:05:41;106.18;;;56.42;;
36475;SDS011;56615;42.682;23.364;2022-11-15T10:10:51;98.90;;;55.17;;
36475;SDS011;56615;42.682;23.364;2022-11-15T10:13:26;94.80;;;50.85;;
36475;SDS011;56615;42.682;23.364;2022-11-15T10:15:54;100.03;;;53.13;;
36475;SDS011;56615;42.682;23.364;2022-11-15T10:18:33;94.40;;;51.90;;
36475;SDS011;56615;42.682;23.364;2022-11-15T10:21:13;89.40;;;51.33;;
36475;SDS011;56615;42.682;23.364;2022-11-15T10:23:42;93.70;;;50.95;;
36475;SDS011;56615;42.682;23.364;2022-11-15T10:26:09;88.28;;;48.40;;
36475;SDS011;56615;42.682;23.364;2022-11-15T10:28:37;84.22;;;48.85;;
36475;SDS011;56615;42.682;23.364;2022-11-15T10:31:03;89.15;;;52.50;;
36475;SDS011;56615;42.682;23.364;2022-11-15T10:33:36;95.10;;;52.25;;
36475;SDS011;56615;42.682;23.364;2022-11-15T10:44:12;88.25;;;51.35;;
36475;SDS011;56615;42.682;23.364;2022-11-15T10:46:44;92.32;;;50.28;;
36475;SDS011;56615;42.682;23.364;2022-11-15T10:51:50;92.15;;;50.92;;
36475;SDS011;56615;42.682;23.364;2022-11-15T10:56:49;89.60;;;50.57;;
36475;SDS011;56615;42.682;23.364;2022-11-15T10:59:17;88.95;;;51.00;;
36475;SDS011;56615;42.682;23.364;2022-11-15T11:01:51;90.82;;;50.70;;
36475;SDS011;56615;42.682;23.364;2022-11-15T11:04:16;90.97;;;51.92;;
36475;SDS011;56615;42.682;23.364;2022-11-15T11:06:51;85.85;;;49.65;;
36475;SDS011;56615;42.682;23.364;2022-11-15T11:11:59;82.65;;;47.72;;
36475;SDS011;56615;42.682;23.364;2022-11-15T11:22:22;90.45;;;50.33;;
36475;SDS011;56615;42.682;23.364;2022-11-15T11:30:33;79.38;;;46.42;;
36475;SDS011;56615;42.682;23.364;2022-11-15T11:33:31;88.00;;;47.08;;
36475;SDS011;56615;42.682;23.364;2022-11-15T11:36:31;84.43;;;45.50;;
36475;SDS011;56615;42.682;23.364;2022-11-15T11:39:21;84.22;;;47.60;;
36475;SDS011;56615;42.682;23.364;2022-11-15T11:44:24;86.57;;;48.80;;
36475;SDS011;56615;42.682;23.364;2022-11-15T11:46:59;87.07;;;51.28;;
36475;SDS011;56615;42.682;23.364;2022-11-15T11:49:51;84.07;;;47.88;;
36475;SDS011;56615;42.682;23.364;2022-11-15T11:52:33;84.88;;;50.28;;
36475;SDS011;56615;42.682;23.364;2022-11-15T12:00:32;85.90;;;47.65;;
36475;SDS011;56615;42.682;23.364;2022-11-15T12:05:35;80.28;;;45.72;;
36475;SDS011;56615;42.682;23.364;2022-11-15T12:11:26;81.10;;;46.58;;
36475;SDS011;56615;42.682;23.364;2022-11-15T12:14:03;77.72;;;46.53;;
36475;SDS011;56615;42.682;23.364;2022-11-15T12:16:36;82.63;;;46.38;;
36475;SDS011;56615;42.682;23.364;2022-11-15T12:19:03;76.13;;;45.47;;
36475;SDS011;56615;42.682;23.364;2022-11-15T12:22:04;82.50;;;48.08;;
36475;SDS011;56615;42.682;23.364;2022-11-15T12:24:39;78.63;;;46.53;;
36475;SDS011;56615;42.682;23.364;2022-11-15T12:29:56;79.82;;;47.63;;
36475;SDS011;56615;42.682;23.364;2022-11-15T12:34:58;86.85;;;52.15;;
36475;SDS011;56615;42.682;23.364;2022-11-15T12:37:44;83.72;;;50.42;;
36475;SDS011;56615;42.682;23.364;2022-11-15T12:43:44;83.43;;;49.45;;
36475;SDS011;56615;42.682;23.364;2022-11-15T12:49:00;84.43;;;48.90;;
36475;SDS011;56615;42.682;23.364;2022-11-15T13:05:56;86.65;;;50.08;;
36475;SDS011;56615;42.682;23.364;2022-11-15T13:07:59;84.72;;;48.03;;
36475;SDS011;56615;42.682;23.364;2022-11-15T13:12:51;93.78;;;52.17;;
36475;SDS011;56615;42.682;23.364;2022-11-15T13:20:52;94.05;;;55.00;;
36475;SDS011;56615;42.682;23.364;2022-11-15T13:23:17;92.65;;;55.00;;
36475;SDS011;56615;42.682;23.364;2022-11-15T13:30:40;91.07;;;53.17;;
36475;SDS011;56615;42.682;23.364;2022-11-15T13:33:19;89.57;;;53.85;;
36475;SDS011;56615;42.682;23.364;2022-11-15T13:35:46;98.45;;;55.38;;
36475;SDS011;56615;42.682;23.364;2022-11-15T13:40:51;99.90;;;56.85;;
36475;SDS011;56615;42.682;23.364;2022-11-15T13:43:31;93.53;;;55.42;;
36475;SDS011;56615;42.682;23.364;2022-11-15T13:48:40;96.85;;;55.05;;
36475;SDS011;56615;42.682;23.364;2022-11-15T13:53:38;98.88;;;57.05;;
36475;SDS011;56615;42.682;23.364;2022-11-15T13:56:05;93.05;;;55.03;;
36475;SDS011;56615;42.682;23.364;2022-11-15T13:58:31;95.35;;;55.55;;
36475;SDS011;56615;42.682;23.364;2022-11-15T14:01:01;103.32;;;57.05;;
36475;SDS011;56615;42.682;23.364;2022-11-15T14:03:41;95.45;;;56.22;;
36475;SDS011;56615;42.682;23.364;2022-11-15T14:06:12;91.90;;;55.97;;
36475;SDS011;56615;42.682;23.364;2022-11-15T14:09:03;93.55;;;55.05;;
36475;SDS011;56615;42.682;23.364;2022-11-15T14:11:29;89.97;;;52.78;;
36475;SDS011;56615;42.682;23.364;2022-11-15T14:14:13;94.55;;;54.80;;
36475;SDS011;56615;42.682;23.364;2022-11-15T14:16:51;94.05;;;53.55;;
36475;SDS011;56615;42.682;23.364;2022-11-15T14:24:43;92.20;;;53.42;;
36475;SDS011;56615;42.682;23.364;2022-11-15T14:27:16;92.35;;;52.13;;
36475;SDS011;56615;42.682;23.364;2022-11-15T14:29:52;87.88;;;50.80;;
36475;SDS011;56615;42.682;23.364;2022-11-15T14:32:22;86.28;;;49.72;;
36475;SDS011;56615;42.682;23.364;2022-11-15T14:34:56;80.35;;;49.25;;
36475;SDS011;56615;42.682;23.364;2022-11-15T14:37:27;84.10;;;50.05;;
36475;SDS011;56615;42.682;23.364;2022-11-15T14:39:58;93.95;;;53.72;;
36475;SDS011;56615;42.682;23.364;2022-11-15T14:42:24;85.25;;;52.65;;
36475;SDS011;56615;42.682;23.364;2022-11-15T14:44:50;86.43;;;51.47;;
36475;SDS011;56615;42.682;23.364;2022-11-15T14:47:15;88.05;;;50.45;;
36475;SDS011;56615;42.682;23.364;2022-11-15T14:49:41;86.07;;;51.33;;
36475;SDS011;56615;42.682;23.364;2022-11-15T14:52:40;94.93;;;52.42;;
36475;SDS011;56615;42.682;23.364;2022-11-15T14:55:00;96.53;;;53.95;;
36475;SDS011;56615;42.682;23.364;2022-11-15T14:57:27;97.82;;;55.28;;
36475;SDS011;56615;42.682;23.364;2022-11-15T14:59:53;97.70;;;57.63;;
36475;SDS011;56615;42.682;23.364;2022-11-15T15:02:23;100.68;;;59.03;;
36475;SDS011;56615;42.682;23.364;2022-11-15T15:04:50;106.63;;;58.00;;
36475;SDS011;56615;42.682;23.364;2022-11-15T15:07:16;94.80;;;57.15;;
36475;SDS011;56615;42.682;23.364;2022-11-15T15:09:42;101.45;;;59.38;;
36475;SDS011;56615;42.682;23.364;2022-11-15T15:12:15;99.20;;;58.15;;
36475;SDS011;56615;42.682;23.364;2022-11-15T15:14:45;100.05;;;58.03;;
36475;SDS011;56615;42.682;23.364;2022-11-15T15:17:11;102.68;;;58.03;;
36475;SDS011;56615;42.682;23.364;2022-11-15T15:19:36;96.28;;;56.58;;
36475;SDS011;56615;42.682;23.364;2022-11-15T15:22:02;91.80;;;54.70;;
36475;SDS011;56615;42.682;23.364;2022-11-15T15:24:27;93.78;;;55.67;;
36475;SDS011;56615;42.682;23.364;2022-11-15T15:26:53;93.18;;;53.15;;
36475;SDS011;56615;42.682;23.364;2022-11-15T15:29:18;100.28;;;55.40;;
36475;SDS011;56615;42.682;23.364;2022-11-15T15:31:43;93.70;;;55.90;;
36475;SDS011;56615;42.682;23.364;2022-11-15T15:34:09;96.93;;;56.33;;
36475;SDS011;56615;42.682;23.364;2022-11-15T15:36:34;92.93;;;53.90;;
36475;SDS011;56615;42.682;23.364;2022-11-15T15:39:02;95.15;;;55.10;;
36475;SDS011;56615;42.682;23.364;2022-11-15T15:41:28;96.28;;;56.13;;
36475;SDS011;56615;42.682;23.364;2022-11-15T15:43:53;94.00;;;55.30;;
36475;SDS011;56615;42.682;23.364;2022-11-15T15:46:19;92.85;;;54.20;;
36475;SDS011;56615;42.682;23.364;2022-11-15T15:48:45;94.97;;;55.30;;
36475;SDS011;56615;42.682;23.364;2022-11-15T15:51:11;96.95;;;56.63;;
36475;SDS011;56615;42.682;23.364;2022-11-15T15:53:38;90.07;;;53.60;;
36475;SDS011;56615;42.682;23.364;2022-11-15T15:56:03;103.03;;;58.33;;
36475;SDS011;56615;42.682;23.364;2022-11-15T15:58:29;102.18;;;58.03;;
36475;SDS011;56615;42.682;23.364;2022-11-15T16:01:03;106.47;;;59.65;;
36475;SDS011;56615;42.682;23.364;2022-11-15T16:03:29;101.40;;;61.40;;
36475;SDS011;56615;42.682;23.364;2022-11-15T16:05:54;132.20;;;73.82;;
36475;SDS011;56615;42.682;23.364;2022-11-15T16:08:21;157.45;;;95.20;;
36475;SDS011;56615;42.682;23.364;2022-11-15T16:10:47;173.27;;;107.70;;
36475;SDS011;56615;42.682;23.364;2022-11-15T16:13:13;168.02;;;104.47;;
36475;SDS011;56615;42.682;23.364;2022-11-15T16:15:39;156.68;;;96.53;;
36475;SDS011;56615;42.682;23.364;2022-11-15T16:18:05;148.68;;;93.32;;
36475;SDS011;56615;42.682;23.364;2022-11-15T16:20:37;141.40;;;84.93;;
36475;SDS011;56615;42.682;23.364;2022-11-15T16:23:14;140.90;;;87.07;;
36475;SDS011;56615;42.682;23.364;2022-11-15T16:25:47;142.65;;;85.70;;
36475;SDS011;56615;42.682;23.364;2022-11-15T16:28:24;139.48;;;83.40;;
36475;SDS011;56615;42.682;23.364;2022-11-15T16:31:03;129.25;;;79.03;;
36475;SDS011;56615;42.682;23.364;2022-11-15T16:33:30;241.75;;;160.27;;
36475;SDS011;56615;42.682;23.364;2022-11-15T16:35:56;134.30;;;82.97;;